createdAt,value
2022-08-15T00:01:22.028Z,100463.50
2022-08-15T00:04:01.021Z,100463.84
2022-08-15T00:06:39.431Z,100461.16
2022-08-15T00:09:11.516Z,100460.81
2022-08-15T00:11:41.778Z,100454.34
2022-08-15T00:14:19.154Z,100447.50
2022-08-15T00:16:49.419Z,100450.56
2022-08-15T00:19:24.508Z,100451.72
2022-08-15T00:21:56.362Z,100440.31
2022-08-15T00:24:29.485Z,100443.38
2022-08-15T00:26:58.956Z,100444.50
2022-08-15T00:29:38.644Z,100444.13
2022-08-15T00:33:19.377Z,100439.97
2022-08-15T00:34:57.931Z,100433.13
2022-08-15T00:37:24.408Z,100441.09
2022-08-15T00:39:55.990Z,100439.97
2022-08-15T00:42:28.042Z,100442.25
2022-08-15T00:45:07.310Z,100437.69
2022-08-15T00:47:41.443Z,100430.09
2022-08-15T00:50:33.553Z,100427.84
2022-08-15T00:53:10.850Z,100430.13
2022-08-15T00:55:41.130Z,100437.34
2022-08-15T00:58:07.964Z,100426.72
2022-08-15T01:00:55.273Z,100424.81
2022-08-15T01:03:27.326Z,100421.78
2022-08-15T01:05:58.589Z,100414.94
2022-08-15T01:08:39.288Z,100423.31
2022-08-15T01:11:26.137Z,100415.31
2022-08-15T01:14:04.429Z,100410.44
2022-08-15T01:16:49.957Z,100408.53
2022-08-15T01:19:19.322Z,100411.94
2022-08-15T01:22:04.448Z,100403.59
2022-08-15T01:25:15.819Z,100413.09
2022-08-15T01:27:28.607Z,100412.31
2022-08-15T01:30:02.086Z,100414.22
2022-08-15T01:32:31.188Z,100414.97
2022-08-15T01:35:01.420Z,100403.19
2022-08-15T01:37:56.943Z,100407.34
2022-08-15T01:40:53.954Z,100408.09
2022-08-15T01:43:08.103Z,100398.19
2022-08-15T01:45:36.982Z,100401.25
2022-08-15T01:48:21.414Z,100405.78
2022-08-15T01:51:01.055Z,100397.81
2022-08-15T01:53:37.746Z,100400.44
2022-08-15T01:56:35.967Z,100401.56
2022-08-15T01:59:07.889Z,100399.66
2022-08-15T02:01:54.171Z,100394.31
2022-08-15T02:04:29.402Z,100395.81
2022-08-15T02:06:58.628Z,100390.13
2022-08-15T02:09:39.138Z,100390.13
2022-08-15T02:13:01.128Z,100384.41
2022-08-15T02:15:01.520Z,100389.69
2022-08-15T02:17:32.050Z,100400.69
2022-08-15T02:20:00.822Z,100402.59
2022-08-15T02:22:28.584Z,100405.59
2022-08-15T02:24:57.355Z,100410.47
2022-08-15T02:27:25.536Z,100397.16
2022-08-15T02:29:53.651Z,100386.84
2022-08-15T02:32:27.033Z,100381.19
2022-08-15T02:35:00.619Z,100383.84
2022-08-15T02:37:27.396Z,100389.50
2022-08-15T02:39:58.231Z,100383.44
2022-08-15T02:42:41.237Z,100381.88
2022-08-15T02:45:15.121Z,100385.25
2022-08-15T02:47:45.027Z,100384.84
2022-08-15T02:50:16.775Z,100387.50
2022-08-15T02:52:47.573Z,100387.13
2022-08-15T02:55:15.379Z,100383.31
2022-08-15T02:57:59.663Z,100378.72
2022-08-15T03:00:30.115Z,100383.63
2022-08-15T03:02:58.606Z,100372.22
2022-08-15T03:05:28.067Z,100386.63
2022-08-15T03:07:54.938Z,100363.09
2022-08-15T03:10:29.649Z,100369.13
2022-08-15T03:13:04.079Z,100379.00
2022-08-15T03:15:42.420Z,100402.19
2022-08-15T03:18:09.898Z,100405.19
2022-08-15T03:20:39.689Z,100399.13
2022-08-15T03:23:08.555Z,100398.38
2022-08-15T03:25:49.458Z,100400.63
2022-08-15T03:28:27.594Z,100391.50
2022-08-15T03:30:55.600Z,100379.38
2022-08-15T03:33:54.620Z,100379.44
2022-08-15T03:36:11.430Z,100371.13
2022-08-15T03:38:52.626Z,100365.81
2022-08-15T03:41:22.875Z,100373.41
2022-08-15T03:43:49.674Z,100366.09
2022-08-15T03:46:24.264Z,100365.72
2022-08-15T03:48:57.810Z,100359.28
2022-08-15T03:51:31.366Z,100358.94
2022-08-15T03:54:00.423Z,100361.59
2022-08-15T03:56:32.951Z,100372.97
2022-08-15T03:59:00.290Z,100376.78
2022-08-15T04:01:30.848Z,100378.28
2022-08-15T04:04:00.205Z,100372.56
2022-08-15T04:06:31.001Z,100371.03
2022-08-15T04:09:13.083Z,100376.34
2022-08-15T04:11:42.024Z,100370.66
2022-08-15T04:14:32.427Z,100371.81
2022-08-15T04:17:02.484Z,100374.47
2022-08-15T04:19:45.906Z,100363.44
2022-08-15T04:22:13.279Z,100354.66
2022-08-15T04:25:00.287Z,100351.25
2022-08-15T04:27:27.496Z,100347.03
2022-08-15T04:29:54.238Z,100357.28
2022-08-15T04:32:29.162Z,100351.16
2022-08-15T04:35:02.167Z,100342.09
2022-08-15T04:37:33.204Z,100349.28
2022-08-15T04:40:00.113Z,100346.56
2022-08-15T04:42:26.983Z,100352.63
2022-08-15T04:44:56.328Z,100360.19
2022-08-15T04:47:23.680Z,100356.41
2022-08-15T04:49:50.341Z,100371.63
2022-08-15T04:52:20.890Z,100368.56
2022-08-15T04:54:58.111Z,100378.44
2022-08-15T04:57:25.621Z,100374.31
2022-08-15T05:00:04.805Z,100372.81
2022-08-15T05:03:01.060Z,100364.47
2022-08-15T05:05:18.869Z,100366.78
2022-08-15T05:07:58.443Z,100369.44
2022-08-15T05:10:33.389Z,100366.44
2022-08-15T05:13:15.841Z,100367.97
2022-08-15T05:15:53.439Z,100371.03
2022-08-15T05:18:21.626Z,100375.19
2022-08-15T05:20:50.862Z,100373.69
2022-08-15T05:23:33.801Z,100377.09
2022-08-15T05:26:53.050Z,100377.84
2022-08-15T05:28:57.683Z,100376.72
2022-08-15T05:31:26.224Z,100377.84
2022-08-15T05:34:01.141Z,100372.13
2022-08-15T05:36:29.867Z,100371.78
2022-08-15T05:39:13.944Z,100374.03
2022-08-15T05:42:02.185Z,100378.56
2022-08-15T05:45:30.611Z,100385.75
2022-08-15T05:48:34.229Z,100386.56
2022-08-15T05:51:14.983Z,100388.50
2022-08-15T05:53:54.145Z,100399.16
2022-08-15T05:56:31.240Z,100398.41
2022-08-15T05:59:10.938Z,100414.00
2022-08-15T06:02:35.402Z,100409.88
2022-08-15T06:04:44.515Z,100416.00
2022-08-15T06:07:15.346Z,100424.41
2022-08-15T06:09:55.083Z,100428.00
2022-08-15T06:12:45.466Z,100429.28
2022-08-15T06:15:19.835Z,100430.53
2022-08-15T06:17:55.664Z,100428.31
2022-08-15T06:20:47.906Z,100424.97
2022-08-15T06:23:37.250Z,100427.69
2022-08-15T06:26:08.938Z,100430.41
2022-08-15T06:29:05.053Z,100436.56
2022-08-15T06:31:39.189Z,100436.97
2022-08-15T06:34:46.602Z,100428.25
2022-08-15T06:37:30.959Z,100435.13
2022-08-15T06:39:57.798Z,100440.50
2022-08-15T06:42:28.726Z,100442.03
2022-08-15T06:45:00.643Z,100428.31
2022-08-15T06:47:34.871Z,100442.78
2022-08-15T06:50:16.719Z,100438.97
2022-08-15T06:52:55.193Z,100432.84
2022-08-15T06:55:37.554Z,100432.06
2022-08-15T06:58:54.819Z,100436.25
2022-08-15T07:01:19.061Z,100434.66
2022-08-15T07:04:11.110Z,100431.19
2022-08-15T07:06:48.007Z,100437.25
2022-08-15T07:09:33.354Z,100431.16
2022-08-15T07:12:35.177Z,100431.13
2022-08-15T07:15:30.717Z,100431.81
2022-08-15T07:18:05.854Z,100430.94
2022-08-15T07:20:38.554Z,100431.53
2022-08-15T07:23:36.355Z,100436.53
2022-08-15T07:26:09.419Z,100436.78
2022-08-15T07:28:43.479Z,100427.16
2022-08-15T07:31:19.852Z,100432.94
2022-08-15T07:33:55.692Z,100438.00
2022-08-15T07:36:29.596Z,100429.25
2022-08-15T07:38:57.742Z,100431.53
2022-08-15T07:41:34.547Z,100428.47
2022-08-15T07:44:22.028Z,100429.22
2022-08-15T07:46:57.767Z,100433.75
2022-08-15T07:49:30.112Z,100431.41
2022-08-15T07:52:43.663Z,100443.56
2022-08-15T07:58:23.852Z,100430.69
2022-08-15T08:01:33.172Z,100433.31
2022-08-15T08:07:34.166Z,100447.22
2022-08-15T08:10:37.802Z,100440.63
2022-08-15T08:13:19.583Z,100440.94
2022-08-15T08:16:08.770Z,100443.25
2022-08-15T08:18:53.930Z,100453.94
2022-08-15T08:21:29.511Z,100461.22
2022-08-15T08:24:03.237Z,100467.34
2022-08-15T08:26:47.700Z,100463.91
2022-08-15T08:29:21.077Z,100460.53
2022-08-15T08:32:30.293Z,100462.91
2022-08-15T08:35:08.587Z,100464.44
2022-08-15T08:37:54.172Z,100461.41
2022-08-15T08:40:56.569Z,100462.91
2022-08-15T08:44:00.663Z,100460.13
2022-08-15T08:47:25.261Z,100458.50
2022-08-15T08:50:39.344Z,100464.81
2022-08-15T08:53:33.721Z,100462.03
2022-08-15T08:56:32.563Z,100468.41
2022-08-15T08:59:39.163Z,100457.59
2022-08-15T09:02:26.989Z,100467.41
2022-08-15T09:05:06.363Z,100470.69
2022-08-15T09:07:39.006Z,100473.97
2022-08-15T09:10:08.612Z,100477.41
2022-08-15T09:13:04.151Z,100477.34
2022-08-15T09:15:41.371Z,100477.78
2022-08-15T09:18:20.478Z,100479.53
2022-08-15T09:20:51.567Z,100489.41
2022-08-15T09:23:25.916Z,100489.41
2022-08-15T09:26:32.534Z,100490.50
2022-08-15T09:29:19.652Z,100489.22
2022-08-15T09:32:31.836Z,100491.41
2022-08-15T09:35:03.942Z,100480.59
2022-08-15T09:38:25.319Z,100488.03
2022-08-15T09:41:15.247Z,100491.88
2022-08-15T09:43:56.358Z,100491.19
2022-08-15T09:46:42.711Z,100496.09
2022-08-15T09:49:33.653Z,100488.69
2022-08-15T09:52:10.616Z,100488.19
2022-08-15T09:55:22.533Z,100481.41
2022-08-15T09:57:55.715Z,100492.88
2022-08-15T10:00:53.957Z,100490.31
2022-08-15T10:03:42.892Z,100487.09
2022-08-15T10:06:34.058Z,100495.75
2022-08-15T10:09:07.207Z,100491.50
2022-08-15T10:11:59.943Z,100495.16
2022-08-15T10:14:54.047Z,100497.97
2022-08-15T10:17:37.132Z,100502.13
2022-08-15T10:20:19.571Z,100509.09
2022-08-15T10:23:01.873Z,100491.47
2022-08-15T10:25:39.817Z,100504.34
2022-08-15T10:28:37.944Z,100502.97
2022-08-15T10:30:59.765Z,100497.34
2022-08-15T10:33:35.540Z,100497.81
2022-08-15T10:36:29.585Z,100502.28
2022-08-15T10:39:07.645Z,100506.25
2022-08-15T10:41:45.245Z,100509.41
2022-08-15T10:45:02.810Z,100517.88
2022-08-15T10:48:02.415Z,100519.50
2022-08-15T10:50:52.467Z,100517.97
2022-08-15T10:53:50.590Z,100516.56
2022-08-15T10:56:59.970Z,100527.53
2022-08-15T10:59:28.618Z,100525.66
2022-08-15T11:02:37.881Z,100523.06
2022-08-15T11:05:11.893Z,100530.53
2022-08-15T11:07:47.435Z,100533.59
2022-08-15T11:10:28.426Z,100537.63
2022-08-15T11:12:58.458Z,100535.84
2022-08-15T11:15:52.087Z,100533.69
2022-08-15T11:18:29.732Z,100524.06
2022-08-15T11:21:19.740Z,100535.16
2022-08-15T11:23:54.963Z,100549.72
2022-08-15T11:26:31.056Z,100546.66
2022-08-15T11:29:25.538Z,100548.25
2022-08-15T11:31:56.566Z,100547.53
2022-08-15T11:34:42.773Z,100546.75
2022-08-15T11:37:17.992Z,100549.53
2022-08-15T11:40:01.269Z,100542.28
2022-08-15T11:42:36.554Z,100552.59
2022-08-15T11:45:29.146Z,100557.91
2022-08-15T11:48:20.003Z,100559.03
2022-08-15T11:50:58.513Z,100550.47
2022-08-15T11:53:43.062Z,100558.00
2022-08-15T11:56:32.531Z,100556.41
2022-08-15T11:59:21.049Z,100554.53
2022-08-15T12:02:04.781Z,100558.81
2022-08-15T12:10:29.899Z,100560.75
2022-08-15T12:12:57.819Z,100559.13
2022-08-15T12:13:12.395Z,100554.16
2022-08-15T12:13:18.688Z,100560.88
2022-08-15T12:15:33.346Z,100568.53
2022-08-15T12:18:32.513Z,100571.44
2022-08-15T12:21:00.276Z,100573.13
2022-08-15T12:23:34.025Z,100581.56
2022-08-15T12:26:37.622Z,100573.53
2022-08-15T12:28:55.261Z,100585.09
2022-08-15T12:31:30.416Z,100586.28
2022-08-15T12:34:26.422Z,100583.97
2022-08-15T12:37:03.154Z,100580.00
2022-08-15T12:39:40.616Z,100580.00
2022-08-15T12:42:48.463Z,100584.09
2022-08-15T12:44:58.686Z,100579.03
2022-08-15T12:47:32.095Z,100580.91
2022-08-15T12:49:59.805Z,100576.66
2022-08-15T12:52:26.944Z,100582.22
2022-08-15T12:54:54.507Z,100579.09
2022-08-15T12:57:22.734Z,100577.38
2022-08-15T12:59:49.917Z,100576.81
2022-08-15T13:02:47.981Z,100580.16
2022-08-15T13:05:12.628Z,100581.66
2022-08-15T13:08:06.643Z,100572.59
2022-08-15T13:11:01.060Z,100577.88
2022-08-15T13:13:15.574Z,100572.16
2022-08-15T13:15:42.280Z,100569.81
2022-08-15T13:18:19.534Z,100580.84
2022-08-15T13:21:08.358Z,100568.38
2022-08-15T13:24:16.764Z,100573.59
2022-08-15T13:26:37.697Z,100577.78
2022-08-15T13:29:06.695Z,100571.22
2022-08-15T13:31:34.443Z,100568.38
2022-08-15T13:34:01.918Z,100565.91
2022-08-15T13:36:31.962Z,100566.44
2022-08-15T13:39:13.930Z,100565.47
2022-08-15T13:42:05.644Z,100565.75
2022-08-15T13:44:41.218Z,100565.91
2022-08-15T13:47:09.768Z,100566.94
2022-08-15T13:49:44.851Z,100562.47
2022-08-15T13:52:44.969Z,100566.09
2022-08-15T13:54:59.931Z,100560.66
2022-08-15T13:57:28.957Z,100561.59
2022-08-15T13:59:57.454Z,100558.56
2022-08-15T14:02:37.571Z,100551.03
2022-08-15T14:05:07.194Z,100544.75
2022-08-15T14:07:53.253Z,100545.16
2022-08-15T14:11:00.146Z,100545.78
2022-08-15T14:13:13.606Z,100547.44
2022-08-15T14:16:08.349Z,100543.78
2022-08-15T14:18:49.957Z,100547.72
2022-08-15T14:21:25.916Z,100552.38
2022-08-15T14:23:54.346Z,100545.28
2022-08-15T14:27:09.412Z,100548.53
2022-08-15T14:29:33.647Z,100558.72
2022-08-15T14:37:53.436Z,100560.06
2022-08-15T14:40:24.763Z,100567.06
2022-08-15T14:42:58.036Z,100565.50
2022-08-15T14:46:33.460Z,100561.97
2022-08-15T14:48:24.242Z,100559.66
2022-08-15T14:51:56.944Z,100565.09
2022-08-15T14:53:50.912Z,100556.59
2022-08-15T14:56:17.905Z,100558.31
2022-08-15T14:58:46.370Z,100557.34
2022-08-15T15:01:29.402Z,100557.06
2022-08-15T15:04:03.609Z,100561.91
2022-08-15T15:06:33.858Z,100556.88
2022-08-15T15:09:01.328Z,100545.78
2022-08-15T15:11:28.606Z,100549.69
2022-08-15T15:13:55.397Z,100544.31
2022-08-15T15:16:41.678Z,100549.78
2022-08-15T15:19:11.831Z,100546.75
2022-08-15T15:21:38.507Z,100542.25
2022-08-15T15:24:05.923Z,100550.75
2022-08-15T15:26:55.575Z,100541.63
2022-08-15T15:29:24.516Z,100550.88
2022-08-15T15:31:55.563Z,100544.31
2022-08-15T15:34:30.691Z,100551.69
2022-08-15T15:37:04.762Z,100554.38
2022-08-15T15:39:46.614Z,100546.47
2022-08-15T15:42:17.602Z,100554.13
2022-08-15T15:44:46.004Z,100552.19
2022-08-15T15:47:13.321Z,100557.06
2022-08-15T15:49:52.913Z,100553.22
2022-08-15T15:52:22.651Z,100554.81
2022-08-15T15:54:53.602Z,100552.53
2022-08-15T15:57:25.831Z,100544.75
2022-08-15T16:00:24.091Z,100543.84
2022-08-15T16:02:55.399Z,100536.47
2022-08-15T16:06:03.503Z,100537.03
2022-08-15T16:08:33.047Z,100537.72
2022-08-15T16:11:25.977Z,100535.16
2022-08-15T16:14:28.335Z,100534.53
2022-08-15T16:17:03.631Z,100539.63
2022-08-15T16:19:35.695Z,100535.22
2022-08-15T16:22:19.338Z,100530.81
2022-08-15T16:24:57.507Z,100530.69
2022-08-15T16:27:35.985Z,100528.41
2022-08-15T16:30:30.500Z,100530.88
2022-08-15T16:32:58.102Z,100536.88
2022-08-15T16:35:39.981Z,100532.84
2022-08-15T16:39:03.355Z,100536.06
2022-08-15T16:41:29.858Z,100546.94
2022-08-15T16:44:15.574Z,100547.41
2022-08-15T16:47:25.612Z,100544.78
2022-08-15T16:50:22.736Z,100543.31
2022-08-15T16:53:06.353Z,100538.84
2022-08-15T16:56:33.266Z,100540.88
2022-08-15T16:59:12.715Z,100539.06
2022-08-15T17:01:44.035Z,100546.81
2022-08-15T17:04:45.208Z,100541.88
2022-08-15T17:07:34.020Z,100543.09
2022-08-15T17:10:28.079Z,100541.53
2022-08-15T17:13:10.747Z,100537.00
2022-08-15T17:15:52.146Z,100538.63
2022-08-15T17:18:32.749Z,100540.94
2022-08-15T17:21:11.836Z,100525.31
2022-08-15T17:24:42.937Z,100532.59
2022-08-15T17:27:34.371Z,100527.31
2022-08-15T17:30:30.136Z,100523.91
2022-08-15T17:33:05.700Z,100533.56
2022-08-15T17:35:34.058Z,100532.91
2022-08-15T17:38:03.625Z,100532.63
2022-08-15T17:40:43.542Z,100537.28
2022-08-15T17:43:24.018Z,100541.88
2022-08-15T17:45:54.668Z,100544.25
2022-08-15T17:48:32.008Z,100555.78
2022-08-15T17:51:18.711Z,100554.34
2022-08-15T17:53:52.418Z,100559.78
2022-08-15T17:56:26.832Z,100559.50
2022-08-15T17:59:10.068Z,100566.38
2022-08-15T18:01:38.090Z,100566.84
2022-08-15T18:04:08.833Z,100565.34
2022-08-15T18:06:36.662Z,100562.00
2022-08-15T18:09:11.643Z,100571.28
2022-08-15T18:11:41.652Z,100575.84
2022-08-15T18:14:39.188Z,100573.22
2022-08-15T18:17:27.626Z,100579.72
2022-08-15T18:20:04.945Z,100583.22
2022-08-15T18:22:32.304Z,100587.50
2022-08-15T18:25:19.034Z,100596.75
2022-08-15T18:27:54.526Z,100589.94
2022-08-15T18:30:37.235Z,100596.06
2022-08-15T18:33:19.084Z,100583.16
2022-08-15T18:35:48.971Z,100590.09
2022-08-15T18:38:16.408Z,100594.34
2022-08-15T18:41:07.235Z,100602.75
2022-08-15T18:43:45.385Z,100606.63
2022-08-15T18:46:20.223Z,100601.31
2022-08-15T18:49:06.148Z,100608.22
2022-08-15T18:52:00.998Z,100614.75
2022-08-15T18:54:48.207Z,100609.44
2022-08-15T18:57:25.168Z,100614.03
2022-08-15T19:00:07.261Z,100614.44
2022-08-15T19:02:49.661Z,100611.00
2022-08-15T19:05:19.443Z,100619.06
2022-08-15T19:07:50.879Z,100632.44
2022-08-15T19:10:24.650Z,100625.59
2022-08-15T19:12:58.749Z,100628.66
2022-08-15T19:15:38.176Z,100639.34
2022-08-15T19:18:30.662Z,100635.53
2022-08-15T19:21:02.438Z,100641.28
2022-08-15T19:23:34.683Z,100640.50
2022-08-15T19:26:25.752Z,100647.41
2022-08-15T19:29:05.483Z,100647.78
2022-08-15T19:32:03.225Z,100642.81
2022-08-15T19:34:38.779Z,100648.16
2022-08-15T19:37:43.358Z,100658.06
2022-08-15T19:40:25.746Z,100658.09
2022-08-15T19:43:09.755Z,100671.06
2022-08-15T19:45:52.772Z,100670.69
2022-08-15T19:48:36.040Z,100678.31
2022-08-15T19:51:54.680Z,100673.38
2022-08-15T19:55:40.088Z,100679.06
2022-08-15T19:58:29.680Z,100679.84
2022-08-15T20:01:39.471Z,100675.63
2022-08-15T20:04:48.281Z,100667.25
2022-08-15T20:07:44.551Z,100673.34
2022-08-15T20:10:44.074Z,100672.94
2022-08-15T20:13:19.404Z,100675.63
2022-08-15T20:16:55.044Z,100669.88
2022-08-15T20:19:15.284Z,100670.25
2022-08-15T20:21:49.757Z,100668.31
2022-08-15T20:24:39.553Z,100665.28
2022-08-15T20:27:17.256Z,100675.91
2022-08-15T20:29:53.341Z,100672.47
2022-08-15T20:32:45.510Z,100678.56
2022-08-15T20:35:38.037Z,100670.50
2022-08-15T20:38:25.452Z,100673.88
2022-08-15T20:41:18.032Z,100676.53
2022-08-15T20:43:51.245Z,100682.56
2022-08-15T20:46:28.828Z,100688.59
2022-08-15T20:49:17.460Z,100692.72
2022-08-15T20:52:37.599Z,100698.03
2022-08-15T20:54:40.576Z,100698.38
2022-08-15T20:57:10.359Z,100697.19
2022-08-15T20:59:43.563Z,100697.91
2022-08-15T21:02:32.949Z,100697.50
2022-08-15T21:05:42.304Z,100704.28
2022-08-15T21:08:34.289Z,100698.53
2022-08-15T21:11:20.368Z,100699.63
2022-08-15T21:15:10.313Z,100705.63
2022-08-15T21:17:21.978Z,100701.03
2022-08-15T21:20:04.762Z,100711.66
2022-08-15T21:22:56.253Z,100706.31
2022-08-15T21:25:42.474Z,100710.84
2022-08-15T21:28:10.192Z,100718.38
2022-08-15T21:31:00.712Z,100718.34
2022-08-15T21:33:40.244Z,100715.25
2022-08-15T21:36:22.195Z,100720.53
2022-08-15T21:39:07.720Z,100709.88
2022-08-15T21:41:55.674Z,100714.38
2022-08-15T21:44:40.116Z,100716.25
2022-08-15T21:47:32.455Z,100718.88
2022-08-15T21:50:25.785Z,100721.16
2022-08-15T21:53:00.385Z,100721.84
2022-08-15T21:55:36.562Z,100726.75
2022-08-15T21:58:17.595Z,100733.22
2022-08-15T22:00:45.117Z,100729.34
2022-08-15T22:03:47.999Z,100737.69
2022-08-15T22:06:28.115Z,100732.66
2022-08-15T22:08:56.347Z,100734.91
2022-08-15T22:11:32.717Z,100734.44
2022-08-15T22:14:00.114Z,100733.66
2022-08-15T22:16:38.828Z,100729.09
2022-08-15T22:19:14.135Z,100727.94
2022-08-15T22:21:48.406Z,100730.59
2022-08-15T22:24:17.420Z,100732.13
2022-08-15T22:26:52.138Z,100728.66
2022-08-15T22:29:31.453Z,100724.09
2022-08-15T22:32:30.387Z,100727.50
2022-08-15T22:34:51.280Z,100728.59
2022-08-15T22:37:17.981Z,100727.09
2022-08-15T22:39:47.382Z,100728.19
2022-08-15T22:42:21.443Z,100724.38
2022-08-15T22:44:52.193Z,100726.28
2022-08-15T22:47:21.976Z,100721.66
2022-08-15T22:49:55.100Z,100725.09
2022-08-15T22:52:26.300Z,100722.03
2022-08-15T22:54:56.831Z,100718.25
2022-08-15T22:57:58.287Z,100710.63
2022-08-15T23:00:16.400Z,100716.69
2022-08-15T23:02:46.183Z,100710.97
2022-08-15T23:05:22.588Z,100715.50
2022-08-15T23:08:07.890Z,100709.38
2022-08-15T23:11:17.026Z,100711.28
2022-08-15T23:13:59.199Z,100722.25
2022-08-15T23:16:37.140Z,100703.56
2022-08-15T23:19:41.141Z,100703.13
2022-08-15T23:22:32.484Z,100701.53
2022-08-15T23:25:00.179Z,100701.44
2022-08-15T23:27:35.581Z,100701.03
2022-08-15T23:30:31.304Z,100698.69
2022-08-15T23:32:57.547Z,100707.72
2022-08-15T23:35:25.692Z,100699.75
2022-08-15T23:37:59.345Z,100701.53
2022-08-15T23:40:50.242Z,100704.50
2022-08-15T23:43:17.039Z,100696.03
2022-08-15T23:45:45.404Z,100698.22
2022-08-15T23:48:13.567Z,100700.41
2022-08-15T23:50:43.316Z,100695.34
2022-08-15T23:53:22.484Z,100693.00
2022-08-15T23:55:59.319Z,100686.88
2022-08-15T23:58:44.055Z,100687.22
